Aviation Digital Data Service (ADDS)

Output produced by TAFs form (1003 UTC 23 April 2017)
found at http://www.aviationweather.gov/adds/tafs/
 
METAR text: WIII 231000Z VRB03KT 7000 FEW020 30/25 Q1008 NOSIG
Conditions at: WIII (SOEKARNO-HATTA I, ID) observed 1000 UTC 23 April 2017
Temperature: 30.0°C (86°F)
Dewpoint: 25.0°C (77°F) [RH = 75%]
Pressure (altimeter): 29.76 inches Hg (1008.0 mb)
Winds: variable direction winds at 3 MPH (3 knots; 1.6 m/s)
Visibility: 4 miles (7 km)
Ceiling: at least 12,000 feet AGL
Clouds: few clouds at 2000 feet AGL
Weather: no significant weather observed at this time

Forecast for: WIII (SOEKARNO-HATTA I, ID)
Text: TAF WIII 230500Z 2306/2412 04010KT 9999 SCT020
Forecast period: 0600 to 1200 UTC 23 April 2017
Forecast type: FROM: standard forecast or significant change
Winds: from the NE (40 degrees) at 12 MPH (10 knots; 5.2 m/s)
Visibility: 6 or more miles (10+ km)
Clouds: scattered clouds at 2000 feet AGL
Weather: no significant weather forecast for this period
Text: BECMG 2312/2314 32007KT 7000
Forecast period: 1200 UTC 23 April 2017 to 1200 UTC 24 April 2017
Forecast type: BECOMING: Conditions expected to become as follows by 1400 UTC 23 April 2017
Winds: from the NW (320 degrees) at 8 MPH (7 knots; 3.6 m/s)
Visibility: 4 miles (7 km)
Clouds: scattered clouds at 2000 feet AGL
Weather: no significant weather forecast for this period